createdAt,value
2019-04-10T00:03:48.305Z,6.77
2019-04-10T00:08:54.723Z,7.23
2019-04-10T00:14:00.805Z,7.50
2019-04-10T00:19:07.048Z,7.43
2019-04-10T00:24:13.557Z,6.33
2019-04-10T00:29:20.314Z,8.13
2019-04-10T00:34:26.434Z,8.23
2019-04-10T00:39:32.798Z,9.33
2019-04-10T00:44:39.664Z,10.23
2019-04-10T00:49:46.152Z,10.70
2019-04-10T00:54:52.158Z,10.73
2019-04-10T00:59:58.873Z,9.83
2019-04-10T01:05:05.126Z,10.13
2019-04-10T01:10:12.213Z,9.13
2019-04-10T01:15:19.068Z,9.67
2019-04-10T01:20:25.824Z,8.53
2019-04-10T01:25:32.552Z,9.43
2019-04-10T01:30:38.563Z,10.10
2019-04-10T01:35:46.658Z,9.23
2019-04-10T01:40:53.139Z,7.83
2019-04-10T01:46:00.309Z,7.80
2019-04-10T01:51:06.727Z,7.87
2019-04-10T01:56:22.052Z,7.67
2019-04-10T02:01:22.307Z,7.83
2019-04-10T02:06:29.381Z,7.27
2019-04-10T02:11:37.611Z,8.03
2019-04-10T02:16:43.501Z,7.97
2019-04-10T02:21:49.756Z,7.83
2019-04-10T02:26:56.135Z,7.07
2019-04-10T02:32:02.268Z,6.60
2019-04-10T02:37:08.747Z,6.43
2019-04-10T02:42:16.076Z,4.93
2019-04-10T02:47:23.082Z,6.23
2019-04-10T02:52:30.695Z,7.33
2019-04-10T02:57:37.465Z,8.03
2019-04-10T03:02:45.334Z,6.60
2019-04-10T03:07:52.637Z,7.53
2019-04-10T03:12:59.317Z,7.90
2019-04-10T03:18:07.064Z,8.17
2019-04-10T03:23:13.519Z,8.57
2019-04-10T03:28:19.808Z,7.70
2019-04-10T03:33:30.512Z,8.00
2019-04-10T03:38:47.348Z,7.67
2019-04-10T03:43:43.735Z,7.53
2019-04-10T03:48:49.543Z,6.33
2019-04-10T03:53:56.472Z,7.20
2019-04-10T03:59:02.324Z,6.83
2019-04-10T04:04:09.614Z,6.43
2019-04-10T04:09:16.216Z,5.97
2019-04-10T04:14:22.414Z,6.20
2019-04-10T04:19:28.567Z,5.93
2019-04-10T04:24:35.795Z,5.70
2019-04-10T04:29:41.498Z,5.13
2019-04-10T04:34:47.514Z,6.33
2019-04-10T04:39:54.316Z,5.27
2019-04-10T04:45:00.793Z,4.97
2019-04-10T04:50:07.702Z,4.47
2019-04-10T04:55:14.217Z,5.30
2019-04-10T05:00:20.248Z,5.00
2019-04-10T05:05:27.139Z,5.00
2019-04-10T05:10:33.529Z,3.87
2019-04-10T05:15:39.491Z,4.83
2019-04-10T05:20:49.958Z,4.63
2019-04-10T05:25:53.863Z,5.57
2019-04-10T05:31:00.916Z,4.57
2019-04-10T05:36:07.011Z,4.20
2019-04-10T05:41:13.376Z,3.20
2019-04-10T05:46:19.380Z,4.27
2019-04-10T05:51:25.425Z,4.50
2019-04-10T05:56:31.335Z,3.70
2019-04-10T06:01:40.212Z,4.00
2019-04-10T06:06:44.962Z,4.07
2019-04-10T06:11:50.770Z,4.27
2019-04-10T06:16:59.396Z,4.40
2019-04-10T06:22:05.334Z,3.20
2019-04-10T06:27:12.291Z,2.83
2019-04-10T06:32:19.282Z,3.50
2019-04-10T06:37:26.286Z,3.63
2019-04-10T06:42:44.845Z,3.50
2019-04-10T06:47:40.416Z,3.50
2019-04-10T06:52:47.162Z,3.10
2019-04-10T06:57:57.204Z,3.73
2019-04-10T07:03:01.052Z,3.43
2019-04-10T07:08:16.038Z,3.10
2019-04-10T07:13:17.542Z,3.00
2019-04-10T07:18:24.238Z,3.47
2019-04-10T07:23:31.997Z,3.60
2019-04-10T07:28:41.670Z,3.40
2019-04-10T07:33:50.132Z,3.23
2019-04-10T07:38:55.711Z,3.60
2019-04-10T07:44:01.646Z,3.80
2019-04-10T07:49:08.554Z,3.03
2019-04-10T07:54:18.315Z,4.20
2019-04-10T07:59:21.767Z,3.30
2019-04-10T08:04:27.658Z,2.90
2019-04-10T08:09:33.541Z,3.90
2019-04-10T08:14:39.921Z,3.80
2019-04-10T08:19:46.180Z,3.93
2019-04-10T08:24:51.970Z,4.47
2019-04-10T08:29:59.013Z,3.60
2019-04-10T08:35:06.978Z,4.47
2019-04-10T08:40:13.572Z,5.07
2019-04-10T08:45:20.903Z,4.70
2019-04-10T08:50:28.015Z,5.13
2019-04-10T08:55:34.980Z,4.47
2019-04-10T09:00:40.944Z,4.57
2019-04-10T09:05:46.989Z,5.00
2019-04-10T09:10:53.098Z,4.30
2019-04-10T09:15:58.890Z,4.80
2019-04-10T09:21:05.020Z,5.27
2019-04-10T09:26:11.398Z,4.20
2019-04-10T09:31:19.715Z,4.50
2019-04-10T09:36:26.982Z,4.50
2019-04-10T09:41:34.109Z,5.47
2019-04-10T09:46:40.810Z,5.00
2019-04-10T09:51:48.181Z,5.70
2019-04-10T09:56:54.868Z,4.60
2019-04-10T10:02:00.912Z,4.57
2019-04-10T10:07:08.252Z,5.30
2019-04-10T10:12:14.094Z,4.63
2019-04-10T10:17:20.312Z,4.83
2019-04-10T10:22:27.293Z,5.07
2019-04-10T10:27:34.263Z,5.63
2019-04-10T10:32:42.121Z,5.43
2019-04-10T10:37:48.502Z,6.20
2019-04-10T10:42:54.478Z,5.30
2019-04-10T10:48:01.285Z,5.43
2019-04-10T10:53:08.103Z,4.90
2019-04-10T10:58:14.018Z,5.50
2019-04-10T11:03:20.414Z,5.43
2019-04-10T11:08:26.959Z,5.20
2019-04-10T11:13:33.215Z,3.70
2019-04-10T11:18:40.380Z,4.13
2019-04-10T11:23:46.867Z,3.50
2019-04-10T11:28:53.096Z,3.20
2019-04-10T11:34:00.099Z,3.30
2019-04-10T11:39:17.093Z,3.53
2019-04-10T11:44:19.213Z,3.23
2019-04-10T11:49:23.850Z,3.63
2019-04-10T11:54:32.247Z,3.90
2019-04-10T11:59:38.967Z,3.83
2019-04-10T12:04:53.001Z,3.60
2019-04-10T12:15:02.037Z,3.73
2019-04-10T12:20:11.117Z,4.00
2019-04-10T12:25:17.116Z,4.40
2019-04-10T12:30:23.530Z,3.70
2019-04-10T12:35:29.810Z,4.27
2019-04-10T12:40:38.690Z,3.67
2019-04-10T12:45:44.405Z,4.00
2019-04-10T12:50:50.460Z,4.17
2019-04-10T12:55:56.474Z,4.03
2019-04-10T13:01:03.056Z,4.93
2019-04-10T13:06:09.546Z,4.47
2019-04-10T13:11:16.261Z,3.83
2019-04-10T13:16:22.202Z,4.53
2019-04-10T13:21:28.510Z,4.67
2019-04-10T13:26:34.585Z,4.20
2019-04-10T13:31:40.645Z,5.70
2019-04-10T13:36:46.614Z,4.23
2019-04-10T13:41:52.608Z,3.70
2019-04-10T13:46:59.445Z,3.93
2019-04-10T13:52:05.811Z,4.00
2019-04-10T13:57:11.917Z,3.13
2019-04-10T14:02:32.250Z,4.43
2019-04-10T14:07:40.156Z,5.03
2019-04-10T14:12:47.146Z,4.50
2019-04-10T14:17:55.766Z,4.10
2019-04-10T14:23:15.747Z,4.17
2019-04-10T14:28:23.173Z,3.57
2019-04-10T14:33:30.400Z,3.93
2019-04-10T14:38:36.452Z,4.37
2019-04-10T14:43:43.818Z,3.77
2019-04-10T14:48:50.180Z,3.70
2019-04-10T14:53:56.054Z,3.73
2019-04-10T14:59:02.132Z,3.40
2019-04-10T15:04:08.829Z,3.00
2019-04-10T15:09:25.314Z,3.50
2019-04-10T15:14:27.818Z,3.00
2019-04-10T15:19:34.347Z,2.93
2019-04-10T15:24:40.359Z,3.10
2019-04-10T15:29:47.206Z,3.70
2019-04-10T15:34:53.685Z,3.30
2019-04-10T15:40:13.487Z,3.30
2019-04-10T15:45:07.345Z,2.90
2019-04-10T15:50:13.859Z,3.17
2019-04-10T15:55:19.818Z,3.23
2019-04-10T16:00:25.813Z,3.90
2019-04-10T16:05:33.373Z,3.03
2019-04-10T16:10:41.347Z,2.87
2019-04-10T16:15:50.477Z,4.37
2019-04-10T16:20:57.263Z,4.10
2019-04-10T16:26:04.846Z,3.37
2019-04-10T16:31:11.003Z,3.70
2019-04-10T16:36:17.199Z,3.23
2019-04-10T16:41:26.327Z,3.90
2019-04-10T16:46:31.990Z,3.97
2019-04-10T16:51:38.531Z,4.03
2019-04-10T16:56:45.617Z,3.50
2019-04-10T17:01:53.209Z,3.83
2019-04-10T17:06:59.175Z,3.77
2019-04-10T17:12:06.579Z,3.50
2019-04-10T17:17:13.013Z,3.07
2019-04-10T17:22:30.760Z,3.97
2019-04-10T17:27:27.526Z,5.90
2019-04-10T17:32:36.317Z,5.03
2019-04-10T17:37:42.739Z,4.80
2019-04-10T17:42:48.655Z,4.60
2019-04-10T17:47:55.258Z,3.70
2019-04-10T17:53:02.818Z,3.17
2019-04-10T17:58:09.457Z,3.70
2019-04-10T18:03:18.365Z,5.40
2019-04-10T18:08:26.411Z,5.10
2019-04-10T18:13:31.141Z,4.80
2019-04-10T18:18:37.981Z,5.13
2019-04-10T18:23:43.997Z,4.13
2019-04-10T18:28:52.024Z,4.67
2019-04-10T18:34:00.739Z,4.90
2019-04-10T18:39:12.486Z,4.00
2019-04-10T18:44:17.385Z,4.40
2019-04-10T18:49:23.246Z,5.07
2019-04-10T18:54:40.211Z,5.67
2019-04-10T18:59:47.647Z,6.57
2019-04-10T19:04:55.287Z,6.57
2019-04-10T19:10:02.179Z,6.33
2019-04-10T19:15:09.209Z,6.30
2019-04-10T19:20:17.986Z,5.93
2019-04-10T19:25:24.898Z,6.70
2019-04-10T19:30:45.685Z,6.17
2019-04-10T19:35:51.637Z,6.57
2019-04-10T19:40:58.434Z,6.77
2019-04-10T19:46:04.400Z,7.27
2019-04-10T19:51:10.374Z,6.90
2019-04-10T19:56:16.313Z,7.23
2019-04-10T20:01:24.514Z,7.27
2019-04-10T20:06:30.170Z,7.07
2019-04-10T20:11:40.316Z,8.27
2019-04-10T20:16:44.031Z,8.07
2019-04-10T20:21:50.369Z,8.27
2019-04-10T20:26:56.479Z,7.30
2019-04-10T20:32:02.721Z,7.90
2019-04-10T20:37:11.310Z,4.87
2019-04-10T20:42:18.215Z,5.60
2019-04-10T20:47:24.677Z,4.90
2019-04-10T20:52:30.775Z,5.73
2019-04-10T20:57:37.486Z,5.03
2019-04-10T21:02:44.562Z,4.87
2019-04-10T21:07:50.629Z,4.60
2019-04-10T21:12:58.418Z,6.33
2019-04-10T21:18:05.102Z,4.70
2019-04-10T21:23:11.072Z,4.70
2019-04-10T21:28:16.878Z,3.90
2019-04-10T21:33:37.310Z,5.27
2019-04-10T21:38:43.166Z,6.67
2019-04-10T21:43:50.876Z,5.07
2019-04-10T21:48:57.357Z,5.50
2019-04-10T21:54:04.361Z,5.33
2019-04-10T21:59:11.096Z,6.57
2019-04-10T22:04:17.435Z,4.87
2019-04-10T22:09:24.757Z,5.37
2019-04-10T22:14:30.622Z,5.20
2019-04-10T22:19:38.015Z,5.00
2019-04-10T22:24:44.095Z,4.43
2019-04-10T22:29:50.069Z,4.50
2019-04-10T22:34:57.017Z,5.00
2019-04-10T22:40:02.859Z,5.20
2019-04-10T22:45:27.399Z,4.80
2019-04-10T22:50:34.509Z,6.57
2019-04-10T22:55:42.323Z,6.77
2019-04-10T23:00:48.490Z,6.17
2019-04-10T23:05:54.553Z,10.83
2019-04-10T23:11:01.385Z,7.53
2019-04-10T23:16:08.993Z,8.53
2019-04-10T23:21:14.884Z,7.77
2019-04-10T23:26:20.790Z,9.80
2019-04-10T23:31:27.887Z,8.70
2019-04-10T23:36:34.085Z,9.13
2019-04-10T23:41:40.055Z,8.07
2019-04-10T23:46:47.459Z,10.13
2019-04-10T23:51:53.685Z,8.30
2019-04-10T23:56:59.706Z,9.83
